Time,TemperatureF,DewpointF,PressureIn,WindDirection,WindDirectionDegrees,WindSpeedMPH,WindSpeedGustMPH,Humidity,HourlyPrecipIn,Conditions,Clouds,dailyrainin,SoftwareType,DateUTC
2013-03-15 00:00:00,26.0,14.0,30.09,WNW,296,4.5,19.5,60,0.00,,---,0.00,VWS V14.01,2013-03-15 04:00:00,
2013-03-15 00:05:00,26.0,14.4,30.09,WNW,284,4.5,13.5,61,0.00,,---,0.00,VWS V14.01,2013-03-15 04:05:00,
2013-03-15 00:10:00,26.0,14.4,30.09,West,277,0.0,3.0,61,0.00,,---,0.00,VWS V14.01,2013-03-15 04:10:00,
2013-03-15 00:15:00,25.9,14.3,30.08,WNW,288,4.5,16.5,61,0.00,,---,0.00,VWS V14.01,2013-03-15 04:15:00,
2013-03-15 00:20:00,25.8,14.2,30.08,West,268,3.0,3.0,61,0.00,,---,0.00,VWS V14.01,2013-03-15 04:20:00,
2013-03-15 00:25:00,25.8,14.6,30.08,WNW,292,4.5,7.5,62,0.00,,---,0.00,VWS V14.01,2013-03-15 04:25:00,
2013-03-15 00:30:00,25.7,14.1,30.08,WNW,298,3.0,7.5,61,0.00,,---,0.00,VWS V14.01,2013-03-15 04:30:00,
2013-03-15 00:35:00,25.7,14.1,30.08,WNW,300,3.0,12.0,61,0.00,,---,0.00,VWS V14.01,2013-03-15 04:35:00,
2013-03-15 00:40:00,25.6,14.4,30.08,WNW,291,6.0,6.0,62,0.00,,---,0.00,VWS V14.01,2013-03-15 04:40:00,
2013-03-15 00:45:00,25.5,14.3,30.08,West,278,6.0,7.5,62,0.00,,---,0.00,VWS V14.01,2013-03-15 04:45:00,
2013-03-15 00:50:00,25.5,14.7,30.08,WNW,284,3.0,6.0,63,0.00,,---,0.00,VWS V14.01,2013-03-15 04:50:00,
2013-03-15 00:55:00,25.4,14.2,30.08,WSW,253,3.0,13.5,62,0.00,,---,0.00,VWS V14.01,2013-03-15 04:55:00,
2013-03-15 01:00:00,25.4,14.2,30.08,WSW,248,3.0,3.0,62,0.00,,---,0.00,VWS V14.01,2013-03-15 05:00:00,
2013-03-15 01:05:00,25.4,14.2,30.08,WSW,240,3.0,9.0,62,0.00,,---,0.00,VWS V14.01,2013-03-15 05:05:00,
2013-03-15 01:11:00,25.3,14.5,30.08,West,267,4.5,6.0,63,0.00,,---,0.00,VWS V14.01,2013-03-15 05:11:00,
2013-03-15 01:16:00,25.3,14.1,30.08,WNW,282,7.5,9.0,62,0.00,,---,0.00,VWS V14.01,2013-03-15 05:16:00,
2013-03-15 01:21:00,25.3,14.1,30.08,SSW,208,1.5,4.5,62,0.00,,---,0.00,VWS V14.01,2013-03-15 05:21:00,
2013-03-15 01:26:00,25.2,14.4,30.08,West,264,3.0,10.5,63,0.00,,---,0.00,VWS V14.01,2013-03-15 05:26:00,
2013-03-15 01:31:00,25.1,14.3,30.08,NNW,336,6.0,6.0,63,0.00,,---,0.00,VWS V14.01,2013-03-15 05:31:00,
2013-03-15 01:36:00,25.1,14.3,30.08,West,272,1.5,7.5,63,0.00,,---,0.00,VWS V14.01,2013-03-15 05:36:00,
2013-03-15 01:41:00,24.9,14.5,30.08,WSW,237,1.5,4.5,64,0.00,,---,0.00,VWS V14.01,2013-03-15 05:41:00,
2013-03-15 01:46:00,24.9,14.5,30.08,WNW,282,0.0,6.0,64,0.00,,---,0.00,VWS V14.01,2013-03-15 05:46:00,
2013-03-15 01:51:00,25.0,14.6,30.08,WSW,258,1.5,3.0,64,0.00,,---,0.00,VWS V14.01,2013-03-15 05:51:00,
2013-03-15 01:56:00,25.0,14.6,30.08,WSW,252,1.5,15.0,64,0.00,,---,0.00,VWS V14.01,2013-03-15 05:56:00,
2013-03-15 02:01:00,25.0,14.9,30.07,WNW,292,1.5,3.0,65,0.00,,---,0.00,VWS V14.01,2013-03-15 06:01:00,
2013-03-15 02:06:00,24.9,14.8,30.07,NNW,331,3.0,6.0,65,0.00,,---,0.00,VWS V14.01,2013-03-15 06:06:00,
2013-03-15 02:11:00,24.9,14.8,30.07,West,265,0.0,4.5,65,0.00,,---,0.00,VWS V14.01,2013-03-15 06:11:00,
2013-03-15 02:16:00,24.9,14.8,30.07,WNW,284,3.0,9.0,65,0.00,,---,0.00,VWS V14.01,2013-03-15 06:16:00,
2013-03-15 02:21:00,24.9,14.8,30.07,SSW,206,0.0,3.0,65,0.00,,---,0.00,VWS V14.01,2013-03-15 06:21:00,
2013-03-15 02:26:00,24.9,14.8,30.07,WSW,254,4.5,4.5,65,0.00,,---,0.00,VWS V14.01,2013-03-15 06:26:00,
2013-03-15 02:31:00,24.8,15.1,30.06,SW,234,3.0,4.5,66,0.00,,---,0.00,VWS V14.01,2013-03-15 06:31:00,
2013-03-15 02:36:00,24.7,14.6,30.06,SSW,201,3.0,7.5,65,0.00,,---,0.00,VWS V14.01,2013-03-15 06:36:00,
2013-03-15 02:41:00,24.7,15.0,30.06,SW,221,3.0,3.0,66,0.00,,---,0.00,VWS V14.01,2013-03-15 06:41:00,
2013-03-15 02:46:00,24.6,15.2,30.05,SSW,210,1.5,6.0,67,0.00,,---,0.00,VWS V14.01,2013-03-15 06:46:00,
2013-03-15 02:52:00,24.6,14.9,30.05,WSW,246,3.0,6.0,66,0.00,,---,0.00,VWS V14.01,2013-03-15 06:52:00,
2013-03-15 02:57:00,24.6,15.2,30.05,WSW,256,4.5,6.0,67,0.00,,---,0.00,VWS V14.01,2013-03-15 06:57:00,
2013-03-15 03:02:00,24.6,15.2,30.04,WSW,256,3.0,3.0,67,0.00,,---,0.00,VWS V14.01,2013-03-15 07:02:00,
2013-03-15 03:07:00,24.5,15.1,30.04,West,274,1.5,4.5,67,0.00,,---,0.00,VWS V14.01,2013-03-15 07:07:00,
2013-03-15 03:12:00,24.7,15.3,30.04,WSW,245,1.5,4.5,67,0.00,,---,0.00,VWS V14.01,2013-03-15 07:12:00,
2013-03-15 03:17:00,24.6,15.6,30.03,WSW,241,1.5,4.5,68,0.00,,---,0.00,VWS V14.01,2013-03-15 07:17:00,
2013-03-15 03:22:00,24.5,15.8,30.03,WSW,241,0.0,3.0,69,0.00,,---,0.00,VWS V14.01,2013-03-15 07:22:00,
2013-03-15 03:27:00,24.4,15.7,30.03,WSW,241,3.0,3.0,69,0.00,,---,0.00,VWS V14.01,2013-03-15 07:27:00,
2013-03-15 03:32:00,24.3,15.6,30.03,West,260,0.0,4.5,69,0.00,,---,0.00,VWS V14.01,2013-03-15 07:32:00,
2013-03-15 03:37:00,24.2,15.8,30.03,WSW,252,0.0,4.5,70,0.00,,---,0.00,VWS V14.01,2013-03-15 07:37:00,
2013-03-15 03:42:00,24.1,16.1,30.03,WSW,252,1.5,3.0,71,0.00,,---,0.00,VWS V14.01,2013-03-15 07:42:00,
2013-03-15 03:47:00,24.1,16.1,30.02,WSW,238,0.0,6.0,71,0.00,,---,0.00,VWS V14.01,2013-03-15 07:47:00,
2013-03-15 03:52:00,24.1,16.4,30.02,SW,220,1.5,4.5,72,0.00,,---,0.00,VWS V14.01,2013-03-15 07:52:00,
2013-03-15 03:57:00,24.1,16.4,30.02,SW,225,1.5,4.5,72,0.00,,---,0.00,VWS V14.01,2013-03-15 07:57:00,
2013-03-15 04:02:00,24.0,16.3,30.01,SW,225,0.0,1.5,72,0.00,,---,0.00,VWS V14.01,2013-03-15 08:02:00,
2013-03-15 04:07:00,23.9,16.2,30.01,SW,225,0.0,1.5,72,0.00,,---,0.00,VWS V14.01,2013-03-15 08:07:00,
2013-03-15 04:12:00,23.9,16.5,30.01,SW,225,0.0,0.0,73,0.00,,---,0.00,VWS V14.01,2013-03-15 08:12:00,
2013-03-15 04:17:00,23.9,16.5,30.00,SW,225,1.5,3.0,73,0.00,,---,0.00,VWS V14.01,2013-03-15 08:17:00,
2013-03-15 04:22:00,23.8,16.4,30.00,SW,225,0.0,0.0,73,0.00,,---,0.00,VWS V14.01,2013-03-15 08:22:00,
2013-03-15 04:27:00,23.9,16.8,30.00,SW,225,0.0,0.0,74,0.00,,---,0.00,VWS V14.01,2013-03-15 08:27:00,
2013-03-15 04:32:00,24.0,16.9,29.99,SW,225,1.5,1.5,74,0.00,,---,0.00,VWS V14.01,2013-03-15 08:32:00,
2013-03-15 04:37:00,24.0,16.9,29.99,WSW,238,0.0,4.5,74,0.00,,---,0.00,VWS V14.01,2013-03-15 08:37:00,
2013-03-15 04:42:00,24.1,17.0,29.99,WSW,238,0.0,3.0,74,0.00,,---,0.00,VWS V14.01,2013-03-15 08:42:00,
2013-03-15 04:47:00,24.2,17.1,29.98,WSW,238,0.0,3.0,74,0.00,,---,0.00,VWS V14.01,2013-03-15 08:47:00,
2013-03-15 04:52:00,24.2,17.1,29.98,WSW,238,0.0,0.0,74,0.00,,---,0.00,VWS V14.01,2013-03-15 08:52:00,
2013-03-15 04:57:00,24.2,17.4,29.98,WSW,239,0.0,3.0,75,0.00,,---,0.00,VWS V14.01,2013-03-15 08:57:00,
2013-03-15 05:02:00,24.2,17.1,29.97,SW,227,0.0,1.5,74,0.00,,---,0.00,VWS V14.01,2013-03-15 09:02:00,
2013-03-15 05:07:00,24.3,17.2,29.97,SW,225,0.0,3.0,74,0.00,,---,0.00,VWS V14.01,2013-03-15 09:07:00,
2013-03-15 05:12:00,24.2,17.1,29.97,SSW,200,0.0,1.5,74,0.00,,---,0.00,VWS V14.01,2013-03-15 09:12:00,
2013-03-15 05:17:00,24.2,17.1,29.97,SSW,199,0.0,3.0,74,0.00,,---,0.00,VWS V14.01,2013-03-15 09:17:00,
2013-03-15 05:22:00,24.2,17.1,29.97,SSW,199,1.5,3.0,74,0.00,,---,0.00,VWS V14.01,2013-03-15 09:22:00,
2013-03-15 05:28:00,24.1,17.3,29.97,SSW,199,1.5,3.0,75,0.00,,---,0.00,VWS V14.01,2013-03-15 09:28:00,
2013-03-15 05:33:00,24.2,17.4,29.96,South,188,0.0,3.0,75,0.00,,---,0.00,VWS V14.01,2013-03-15 09:33:00,
2013-03-15 05:38:00,24.2,17.4,29.96,South,184,0.0,4.5,75,0.00,,---,0.00,VWS V14.01,2013-03-15 09:38:00,
2013-03-15 05:43:00,24.3,17.5,29.96,SSE,168,0.0,6.0,75,0.00,,---,0.00,VWS V14.01,2013-03-15 09:43:00,
2013-03-15 05:48:00,24.3,17.8,29.95,South,189,0.0,6.0,76,0.00,,---,0.00,VWS V14.01,2013-03-15 09:48:00,
2013-03-15 05:53:00,24.3,17.8,29.95,South,180,1.5,3.0,76,0.00,,---,0.00,VWS V14.01,2013-03-15 09:53:00,
2013-03-15 05:58:00,24.4,17.9,29.95,South,176,0.0,3.0,76,0.00,,---,0.00,VWS V14.01,2013-03-15 09:58:00,
2013-03-15 06:03:00,24.4,17.9,29.94,South,179,1.5,3.0,76,0.00,,---,0.00,VWS V14.01,2013-03-15 10:03:00,
2013-03-15 06:08:00,24.4,18.2,29.94,South,178,3.0,6.0,77,0.00,,---,0.00,VWS V14.01,2013-03-15 10:08:00,
2013-03-15 06:13:00,24.4,18.2,29.94,South,174,3.0,3.0,77,0.00,,---,0.00,VWS V14.01,2013-03-15 10:13:00,
2013-03-15 06:18:00,24.4,18.2,29.93,SSW,196,3.0,4.5,77,0.00,,---,0.00,VWS V14.01,2013-03-15 10:18:00,
2013-03-15 06:23:00,24.4,18.5,29.93,SW,224,1.5,6.0,78,0.00,,---,0.00,VWS V14.01,2013-03-15 10:23:00,
2013-03-15 06:28:00,24.5,18.6,29.93,SSW,208,4.5,6.0,78,0.00,,---,0.00,VWS V14.01,2013-03-15 10:28:00,
2013-03-15 06:33:00,24.6,18.7,29.91,SSW,201,1.5,6.0,78,0.00,,---,0.00,VWS V14.01,2013-03-15 10:33:00,
2013-03-15 06:38:00,24.7,19.1,29.91,SSW,203,4.5,6.0,79,0.00,,---,0.00,VWS V14.01,2013-03-15 10:38:00,
2013-03-15 06:43:00,24.8,19.2,29.91,SSW,200,1.5,4.5,79,0.00,,---,0.00,VWS V14.01,2013-03-15 10:43:00,
2013-03-15 06:48:00,24.9,19.3,29.90,South,188,1.5,4.5,79,0.00,,---,0.00,VWS V14.01,2013-03-15 10:48:00,
2013-03-15 06:53:00,25.0,19.4,29.90,SW,220,1.5,4.5,79,0.00,,---,0.00,VWS V14.01,2013-03-15 10:53:00,
2013-03-15 06:58:00,25.1,19.5,29.90,South,189,3.0,6.0,79,0.00,,---,0.00,VWS V14.01,2013-03-15 10:58:00,
2013-03-15 07:03:00,25.2,19.6,29.90,SSW,203,3.0,4.5,79,0.00,,---,0.00,VWS V14.01,2013-03-15 11:03:00,
2013-03-15 07:08:00,25.3,19.7,29.90,SW,228,1.5,4.5,79,0.00,,---,0.00,VWS V14.01,2013-03-15 11:08:00,
2013-03-15 07:13:00,25.3,19.7,29.90,South,189,1.5,6.0,79,0.00,,---,0.00,VWS V14.01,2013-03-15 11:13:00,
2013-03-15 07:18:00,25.3,19.7,29.88,South,189,1.5,6.0,79,0.00,,---,0.00,VWS V14.01,2013-03-15 11:18:00,
2013-03-15 07:23:00,25.3,19.7,29.88,WSW,254,1.5,6.0,79,0.00,,---,0.00,VWS V14.01,2013-03-15 11:23:00,
2013-03-15 07:28:00,25.3,19.7,29.88,SW,224,1.5,6.0,79,0.00,,---,0.00,VWS V14.01,2013-03-15 11:28:00,
2013-03-15 07:33:00,25.4,19.8,29.88,SW,231,0.0,4.5,79,0.00,,---,0.00,VWS V14.01,2013-03-15 11:33:00,
2013-03-15 07:38:00,25.5,19.6,29.88,SW,225,1.5,4.5,78,0.00,,---,0.00,VWS V14.01,2013-03-15 11:38:00,
2013-03-15 07:43:00,25.7,19.8,29.88,WSW,237,1.5,4.5,78,0.00,,---,0.00,VWS V14.01,2013-03-15 11:43:00,
2013-03-15 07:48:00,25.8,19.9,29.86,SW,219,3.0,4.5,78,0.00,,---,0.00,VWS V14.01,2013-03-15 11:48:00,
2013-03-15 07:53:00,26.0,20.1,29.86,SSW,196,3.0,7.5,78,0.00,,---,0.00,VWS V14.01,2013-03-15 11:53:00,
2013-03-15 07:58:00,26.2,20.0,29.86,SW,229,7.5,7.5,77,0.00,,---,0.00,VWS V14.01,2013-03-15 11:58:00,
2013-03-15 08:03:00,26.4,20.2,29.86,South,173,3.0,6.0,77,0.00,,---,0.00,VWS V14.01,2013-03-15 12:03:00,
2013-03-15 08:08:00,26.6,20.4,29.86,SW,234,0.0,6.0,77,0.00,,---,0.00,VWS V14.01,2013-03-15 12:08:00,
2013-03-15 08:13:00,26.7,20.2,29.86,SW,231,3.0,4.5,76,0.00,,---,0.00,VWS V14.01,2013-03-15 12:13:00,
2013-03-15 08:18:00,27.0,20.5,29.85,WSW,239,3.0,6.0,76,0.00,,---,0.00,VWS V14.01,2013-03-15 12:18:00,
2013-03-15 08:23:00,27.3,20.8,29.85,SW,229,3.0,10.5,76,0.00,,---,0.00,VWS V14.01,2013-03-15 12:23:00,
2013-03-15 08:28:00,27.6,21.0,29.85,WSW,246,4.5,10.5,76,0.00,,---,0.00,VWS V14.01,2013-03-15 12:28:00,
2013-03-15 08:33:00,28.0,21.1,29.84,SW,235,4.5,9.0,75,0.00,,---,0.00,VWS V14.01,2013-03-15 12:33:00,
2013-03-15 08:38:00,28.5,21.6,29.84,WSW,240,6.0,9.0,75,0.00,,---,0.00,VWS V14.01,2013-03-15 12:38:00,
2013-03-15 08:43:00,28.9,21.7,29.84,West,265,4.5,10.5,74,0.00,,---,0.00,VWS V14.01,2013-03-15 12:43:00,
2013-03-15 08:48:00,29.2,22.0,29.84,WSW,258,6.0,15.0,74,0.00,,---,0.00,VWS V14.01,2013-03-15 12:48:00,
2013-03-15 08:53:00,29.3,22.4,29.84,WNW,284,3.0,10.5,75,0.00,,---,0.00,VWS V14.01,2013-03-15 12:53:00,
2013-03-15 08:58:00,29.5,22.9,29.84,SW,215,3.0,10.5,76,0.00,,---,0.00,VWS V14.01,2013-03-15 12:58:00,
2013-03-15 09:04:00,29.7,23.1,29.83,WSW,244,6.0,9.0,76,0.00,,---,0.00,VWS V14.01,2013-03-15 13:04:00,
2013-03-15 09:09:00,29.7,24.0,29.83,WSW,258,6.0,16.5,79,0.00,,---,0.00,VWS V14.01,2013-03-15 13:09:00,
2013-03-15 09:14:00,29.6,24.2,29.83,WSW,238,6.0,9.0,80,0.00,,---,0.00,VWS V14.01,2013-03-15 13:14:00,
2013-03-15 09:19:00,29.5,25.0,29.83,SSW,199,6.0,15.0,83,0.00,,---,0.00,VWS V14.01,2013-03-15 13:19:00,
2013-03-15 09:24:00,29.3,25.1,29.83,SW,229,3.0,13.5,84,0.00,,---,0.00,VWS V14.01,2013-03-15 13:24:00,
2013-03-15 09:29:00,29.2,25.3,29.83,West,275,4.5,13.5,85,0.00,,---,0.00,VWS V14.01,2013-03-15 13:29:00,
2013-03-15 09:34:00,29.0,25.4,29.83,SW,229,4.5,10.5,86,0.00,,---,0.00,VWS V14.01,2013-03-15 13:34:00,
2013-03-15 09:39:00,29.0,25.6,29.83,SW,218,10.5,10.5,87,0.00,,---,0.00,VWS V14.01,2013-03-15 13:39:00,
2013-03-15 09:44:00,29.0,26.2,29.83,WSW,258,6.0,7.5,89,0.00,,---,0.00,VWS V14.01,2013-03-15 13:44:00,
2013-03-15 09:49:00,29.1,26.3,29.82,WSW,248,6.0,16.5,89,0.00,,---,0.00,VWS V14.01,2013-03-15 13:49:00,
2013-03-15 09:54:00,29.2,26.4,29.82,WSW,237,6.0,10.5,89,0.00,,---,0.00,VWS V14.01,2013-03-15 13:54:00,
2013-03-15 09:59:00,29.2,26.6,29.82,WSW,248,4.5,15.0,90,0.00,,---,0.00,VWS V14.01,2013-03-15 13:59:00,
2013-03-15 10:04:00,29.3,27.0,29.82,WNW,289,3.0,7.5,91,0.00,,---,0.00,VWS V14.01,2013-03-15 14:04:00,
2013-03-15 10:09:00,29.4,27.1,29.82,WSW,254,1.5,7.5,91,0.00,,---,0.00,VWS V14.01,2013-03-15 14:09:00,
2013-03-15 10:14:00,29.6,27.6,29.82,WSW,242,3.0,4.5,92,0.00,,---,0.00,VWS V14.01,2013-03-15 14:14:00,
2013-03-15 10:19:00,29.6,27.6,29.81,WSW,255,3.0,10.5,92,0.00,,---,0.00,VWS V14.01,2013-03-15 14:19:00,
2013-03-15 10:24:00,29.8,28.0,29.81,West,262,4.5,9.0,93,0.00,,---,0.00,VWS V14.01,2013-03-15 14:24:00,
2013-03-15 10:29:00,30.1,28.3,29.81,West,264,1.5,9.0,93,0.00,,---,0.00,VWS V14.01,2013-03-15 14:29:00,
2013-03-15 10:34:00,30.4,28.9,29.81,WNW,299,3.0,7.5,94,0.00,,---,0.00,VWS V14.01,2013-03-15 14:34:00,
2013-03-15 10:39:00,30.5,29.0,29.81,NW,312,15.0,16.5,94,0.00,,---,0.00,VWS V14.01,2013-03-15 14:39:00,
2013-03-15 10:44:00,30.6,29.1,29.81,WNW,297,3.0,10.5,94,0.00,,---,0.00,VWS V14.01,2013-03-15 14:44:00,
2013-03-15 10:49:00,30.6,29.1,29.81,West,262,4.5,10.5,94,0.00,,---,0.00,VWS V14.01,2013-03-15 14:49:00,
2013-03-15 10:54:00,30.6,29.1,29.81,WNW,293,4.5,18.0,94,0.00,,---,0.00,VWS V14.01,2013-03-15 14:54:00,
2013-03-15 10:59:00,30.7,29.2,29.81,WNW,286,6.0,18.0,94,0.00,,---,0.00,VWS V14.01,2013-03-15 14:59:00,
2013-03-15 11:04:00,30.7,29.2,29.81,West,267,3.0,16.5,94,0.00,,---,0.00,VWS V14.01,2013-03-15 15:04:00,
2013-03-15 11:09:00,30.7,29.2,29.81,West,274,4.5,16.5,94,0.00,,---,0.00,VWS V14.01,2013-03-15 15:09:00,
2013-03-15 11:14:00,30.7,29.4,29.80,WNW,295,0.0,7.5,95,0.00,,---,0.00,VWS V14.01,2013-03-15 15:14:00,
2013-03-15 11:19:00,30.8,29.5,29.80,WNW,288,4.5,12.0,95,0.00,,---,0.00,VWS V14.01,2013-03-15 15:19:00,
2013-03-15 11:24:00,30.8,29.5,29.80,WNW,286,4.5,13.5,95,0.00,,---,0.00,VWS V14.01,2013-03-15 15:24:00,
2013-03-15 11:29:00,30.8,29.5,29.80,West,269,6.0,13.5,95,0.00,,---,0.00,VWS V14.01,2013-03-15 15:29:00,
2013-03-15 11:34:00,30.8,29.5,29.80,West,269,3.0,16.5,95,0.00,,---,0.00,VWS V14.01,2013-03-15 15:34:00,
2013-03-15 11:39:00,30.8,29.5,29.80,West,267,7.5,16.5,95,0.00,,---,0.00,VWS V14.01,2013-03-15 15:39:00,
2013-03-15 11:44:00,30.8,29.5,29.80,West,264,9.0,16.5,95,0.00,,---,0.00,VWS V14.01,2013-03-15 15:44:00,
2013-03-15 11:49:00,30.9,29.6,29.80,West,278,3.0,18.0,95,0.00,,---,0.00,VWS V14.01,2013-03-15 15:49:00,
2013-03-15 11:54:00,30.9,29.6,29.80,West,274,7.5,16.5,95,0.00,,---,0.00,VWS V14.01,2013-03-15 15:54:00,
2013-03-15 11:59:00,31.0,29.7,29.80,West,279,4.5,18.0,95,0.00,,---,0.00,VWS V14.01,2013-03-15 15:59:00,
2013-03-15 12:04:00,31.2,30.2,29.80,WSW,239,4.5,10.5,96,0.00,,---,0.00,VWS V14.01,2013-03-15 16:04:00,
2013-03-15 12:09:00,31.3,30.0,29.80,WNW,303,7.5,16.5,95,0.00,,---,0.00,VWS V14.01,2013-03-15 16:09:00,
2013-03-15 12:14:00,31.3,30.0,29.79,West,274,4.5,16.5,95,0.00,,---,0.00,VWS V14.01,2013-03-15 16:14:00,
2013-03-15 12:20:00,31.4,30.1,29.79,West,277,3.0,16.5,95,0.00,,---,0.00,VWS V14.01,2013-03-15 16:20:00,
2013-03-15 12:25:00,31.5,30.2,29.79,West,276,4.5,15.0,95,0.00,,---,0.00,VWS V14.01,2013-03-15 16:25:00,
2013-03-15 12:30:00,31.6,30.3,29.78,West,265,7.5,15.0,95,0.00,,---,0.00,VWS V14.01,2013-03-15 16:30:00,
2013-03-15 12:35:00,31.7,30.2,29.78,WNW,300,6.0,13.5,94,0.00,,---,0.00,VWS V14.01,2013-03-15 16:35:00,
2013-03-15 12:40:00,31.8,30.3,29.78,WNW,286,7.5,15.0,94,0.00,,---,0.00,VWS V14.01,2013-03-15 16:40:00,
2013-03-15 12:45:00,32.0,30.5,29.77,WSW,258,6.0,13.5,94,0.00,,---,0.00,VWS V14.01,2013-03-15 16:45:00,
2013-03-15 12:50:00,32.2,30.4,29.77,West,277,9.0,18.0,93,0.00,,---,0.00,VWS V14.01,2013-03-15 16:50:00,
2013-03-15 12:55:00,32.4,30.1,29.77,WSW,248,4.5,19.5,91,0.00,,---,0.00,VWS V14.01,2013-03-15 16:55:00,
2013-03-15 13:00:00,32.7,30.4,29.77,West,268,6.0,19.5,91,0.00,,---,0.00,VWS V14.01,2013-03-15 17:00:00,
2013-03-15 13:05:00,32.8,30.2,29.77,SW,226,4.5,15.0,90,0.00,,---,0.00,VWS V14.01,2013-03-15 17:05:00,
2013-03-15 13:10:00,33.0,30.1,29.77,SW,226,6.0,15.0,89,0.00,,---,0.00,VWS V14.01,2013-03-15 17:10:00,
2013-03-15 13:15:00,33.0,29.8,29.76,SW,234,1.5,21.0,88,0.00,,---,0.00,VWS V14.01,2013-03-15 17:15:00,
2013-03-15 13:20:00,33.1,29.9,29.76,WNW,293,6.0,21.0,88,0.00,,---,0.00,VWS V14.01,2013-03-15 17:20:00,
2013-03-15 13:25:00,33.1,29.7,29.76,West,263,3.0,15.0,87,0.00,,---,0.00,VWS V14.01,2013-03-15 17:25:00,
2013-03-15 13:30:00,33.2,29.8,29.75,WNW,301,10.5,15.0,87,0.00,,---,0.00,VWS V14.01,2013-03-15 17:30:00,
2013-03-15 13:35:00,33.3,29.6,29.75,WNW,303,7.5,22.5,86,0.00,,---,0.00,VWS V14.01,2013-03-15 17:35:00,
2013-03-15 13:40:00,33.5,30.0,29.75,SW,225,3.0,22.5,87,0.00,,---,0.00,VWS V14.01,2013-03-15 17:40:00,
2013-03-15 13:45:00,33.6,29.9,29.75,NW,317,6.0,16.5,86,0.00,,---,0.00,VWS V14.01,2013-03-15 17:45:00,
2013-03-15 13:50:00,33.7,29.7,29.75,West,274,9.0,24.0,85,0.00,,---,0.00,VWS V14.01,2013-03-15 17:50:00,
2013-03-15 13:55:00,34.3,30.8,29.75,NNW,343,7.5,18.0,87,0.00,,---,0.00,VWS V14.01,2013-03-15 17:55:00,
2013-03-15 14:00:00,34.6,30.0,29.75,WNW,296,6.0,19.5,83,0.00,,---,0.00,VWS V14.01,2013-03-15 18:00:00,
2013-03-15 14:05:00,34.9,30.0,29.75,WNW,291,6.0,28.5,82,0.00,,---,0.00,VWS V14.01,2013-03-15 18:05:00,
2013-03-15 14:10:00,35.2,30.0,29.75,SW,235,6.0,28.5,81,0.00,,---,0.00,VWS V14.01,2013-03-15 18:10:00,
2013-03-15 14:15:00,35.5,30.3,29.75,North,0,7.5,18.0,81,0.00,,---,0.00,VWS V14.01,2013-03-15 18:15:00,
2013-03-15 14:20:00,35.3,30.1,29.75,West,280,12.0,12.0,81,0.00,,---,0.00,VWS V14.01,2013-03-15 18:20:00,
2013-03-15 14:25:00,35.3,30.1,29.75,West,269,6.0,21.0,81,0.00,,---,0.00,VWS V14.01,2013-03-15 18:25:00,
2013-03-15 14:30:00,35.4,30.2,29.74,WNW,283,3.0,21.0,81,0.00,,---,0.00,VWS V14.01,2013-03-15 18:30:00,
2013-03-15 14:35:00,35.4,29.9,29.74,NW,316,3.0,18.0,80,0.00,,---,0.00,VWS V14.01,2013-03-15 18:35:00,
2013-03-15 14:40:00,35.4,29.5,29.74,SSE,156,6.0,7.5,79,0.00,,---,0.00,VWS V14.01,2013-03-15 18:40:00,
2013-03-15 14:45:00,35.5,29.6,29.73,WNW,284,6.0,21.0,79,0.00,,---,0.00,VWS V14.01,2013-03-15 18:45:00,
2013-03-15 14:50:00,35.5,29.3,29.73,West,279,4.5,10.5,78,0.00,,---,0.00,VWS V14.01,2013-03-15 18:50:00,
2013-03-15 14:55:00,35.6,29.1,29.73,WSW,246,6.0,34.5,77,0.00,,---,0.00,VWS V14.01,2013-03-15 18:55:00,
2013-03-15 15:00:00,35.6,29.1,29.73,West,260,6.0,6.0,77,0.00,,---,0.00,VWS V14.01,2013-03-15 19:00:00,
2013-03-15 15:05:00,35.8,29.0,29.73,West,280,4.5,19.5,76,0.00,,---,0.00,VWS V14.01,2013-03-15 19:05:00,
2013-03-15 15:10:00,36.0,29.8,29.73,WNW,300,7.5,15.0,78,0.00,,---,0.00,VWS V14.01,2013-03-15 19:10:00,
2013-03-15 15:15:00,36.4,29.6,29.73,West,281,4.5,24.0,76,0.00,,---,0.00,VWS V14.01,2013-03-15 19:15:00,
2013-03-15 15:20:00,36.5,29.3,29.73,West,281,15.0,15.0,75,0.00,,---,0.00,VWS V14.01,2013-03-15 19:20:00,
2013-03-15 15:25:00,36.4,29.2,29.73,West,276,7.5,19.5,75,0.00,,---,0.00,VWS V14.01,2013-03-15 19:25:00,
2013-03-15 15:30:00,36.4,29.6,29.73,West,270,7.5,7.5,76,0.00,,---,0.00,VWS V14.01,2013-03-15 19:30:00,
2013-03-15 15:35:00,36.3,29.1,29.73,WNW,299,4.5,13.5,75,0.00,,---,0.00,VWS V14.01,2013-03-15 19:35:00,
2013-03-15 15:41:00,36.4,29.2,29.73,NW,312,9.0,18.0,75,0.00,,---,0.00,VWS V14.01,2013-03-15 19:41:00,
2013-03-15 15:46:00,36.9,29.7,29.73,WSW,248,18.0,21.0,75,0.00,,---,0.00,VWS V14.01,2013-03-15 19:46:00,
2013-03-15 15:51:00,37.0,29.5,29.73,WNW,300,13.5,13.5,74,0.00,,---,0.00,VWS V14.01,2013-03-15 19:51:00,
2013-03-15 15:56:00,36.8,29.6,29.73,NNW,329,7.5,21.0,75,0.00,,---,0.00,VWS V14.01,2013-03-15 19:56:00,
2013-03-15 16:01:00,36.9,29.4,29.74,WNW,303,9.0,13.5,74,0.00,,---,0.00,VWS V14.01,2013-03-15 20:01:00,
2013-03-15 16:06:00,36.8,29.3,29.74,WNW,295,3.0,15.0,74,0.00,,---,0.00,VWS V14.01,2013-03-15 20:06:00,
2013-03-15 16:11:00,36.5,29.0,29.74,SW,226,13.5,13.5,74,0.00,,---,0.00,VWS V14.01,2013-03-15 20:11:00,
2013-03-15 16:16:00,36.8,29.6,29.73,West,280,4.5,16.5,75,0.00,,---,0.00,VWS V14.01,2013-03-15 20:16:00,
2013-03-15 16:21:00,36.8,29.3,29.73,SW,234,3.0,13.5,74,0.00,,---,0.00,VWS V14.01,2013-03-15 20:21:00,
2013-03-15 16:26:00,36.7,28.9,29.73,NW,306,6.0,19.5,73,0.00,,---,0.00,VWS V14.01,2013-03-15 20:26:00,
2013-03-15 16:31:00,36.8,29.0,29.74,WNW,296,15.0,15.0,73,0.00,,---,0.00,VWS V14.01,2013-03-15 20:31:00,
2013-03-15 16:36:00,36.7,28.9,29.74,WNW,302,16.5,16.5,73,0.00,,---,0.00,VWS V14.01,2013-03-15 20:36:00,
2013-03-15 16:41:00,36.5,28.7,29.74,NE,38,4.5,19.5,73,0.00,,---,0.00,VWS V14.01,2013-03-15 20:41:00,
2013-03-15 16:46:00,36.4,28.9,29.74,West,274,3.0,19.5,74,0.00,,---,0.00,VWS V14.01,2013-03-15 20:46:00,
2013-03-15 16:51:00,36.3,28.8,29.74,WSW,258,6.0,9.0,74,0.00,,---,0.00,VWS V14.01,2013-03-15 20:51:00,
2013-03-15 16:56:00,36.1,29.0,29.74,WNW,300,13.5,19.5,75,0.00,,---,0.00,VWS V14.01,2013-03-15 20:56:00,
2013-03-15 17:01:00,36.1,29.0,29.74,WSW,256,7.5,9.0,75,0.00,,---,0.00,VWS V14.01,2013-03-15 21:01:00,
2013-03-15 17:06:00,36.1,28.3,29.74,West,271,4.5,22.5,73,0.00,,---,0.00,VWS V14.01,2013-03-15 21:06:00,
2013-03-15 17:11:00,36.1,28.3,29.74,West,279,7.5,19.5,73,0.00,,---,0.00,VWS V14.01,2013-03-15 21:11:00,
2013-03-15 17:17:00,36.2,28.7,29.75,NNW,331,10.5,25.5,74,0.00,,---,0.00,VWS V14.01,2013-03-15 21:17:00,
2013-03-15 17:22:00,36.3,29.1,29.75,WNW,282,3.0,15.0,75,0.00,,---,0.00,VWS V14.01,2013-03-15 21:22:00,
2013-03-15 17:27:00,36.3,28.8,29.75,WNW,282,3.0,15.0,74,0.00,,---,0.00,VWS V14.01,2013-03-15 21:27:00,
2013-03-15 17:32:00,36.4,28.9,29.75,WNW,303,6.0,24.0,74,0.00,,---,0.00,VWS V14.01,2013-03-15 21:32:00,
2013-03-15 17:37:00,36.4,28.9,29.75,SW,228,10.5,24.0,74,0.00,,---,0.00,VWS V14.01,2013-03-15 21:37:00,
2013-03-15 17:42:00,36.4,28.9,29.75,WNW,303,4.5,10.5,74,0.00,,---,0.00,VWS V14.01,2013-03-15 21:42:00,
2013-03-15 17:47:00,36.4,28.9,29.75,WNW,287,9.0,24.0,74,0.00,,---,0.00,VWS V14.01,2013-03-15 21:47:00,
2013-03-15 17:52:00,36.4,28.9,29.75,West,259,13.5,13.5,74,0.00,,---,0.00,VWS V14.01,2013-03-15 21:52:00,
2013-03-15 17:57:00,36.5,29.3,29.75,WNW,284,4.5,13.5,75,0.00,,---,0.00,VWS V14.01,2013-03-15 21:57:00,
2013-03-15 18:02:00,36.5,29.0,29.75,West,278,13.5,27.0,74,0.00,,---,0.00,VWS V14.01,2013-03-15 22:02:00,
2013-03-15 18:07:00,36.4,28.9,29.75,WNW,284,4.5,27.0,74,0.00,,---,0.00,VWS V14.01,2013-03-15 22:07:00,
2013-03-15 18:12:00,36.5,29.3,29.75,SW,232,4.5,10.5,75,0.00,,---,0.00,VWS V14.01,2013-03-15 22:12:00,
2013-03-15 18:17:00,36.7,29.2,29.76,WSW,258,3.0,27.0,74,0.00,,---,0.00,VWS V14.01,2013-03-15 22:17:00,
2013-03-15 18:22:00,36.7,29.2,29.76,WNW,286,4.5,6.0,74,0.00,,---,0.00,VWS V14.01,2013-03-15 22:22:00,
2013-03-15 18:27:00,36.5,27.7,29.76,SW,232,9.0,16.5,70,0.00,,---,0.00,VWS V14.01,2013-03-15 22:27:00,
2013-03-15 18:32:00,36.4,27.6,29.76,NW,321,15.0,22.5,70,0.00,,---,0.00,VWS V14.01,2013-03-15 22:32:00,
2013-03-15 18:37:00,36.4,25.4,29.76,WNW,286,0.0,22.5,64,0.00,,---,0.00,VWS V14.01,2013-03-15 22:37:00,
2013-03-15 18:42:00,36.3,24.5,29.76,WNW,287,16.5,16.5,62,0.00,,---,0.00,VWS V14.01,2013-03-15 22:42:00,
2013-03-15 18:47:00,36.2,22.9,29.77,WNW,293,4.5,21.0,58,0.00,,---,0.00,VWS V14.01,2013-03-15 22:47:00,
2013-03-15 18:53:00,36.2,22.9,29.77,NW,312,9.0,19.5,58,0.00,,---,0.00,VWS V14.01,2013-03-15 22:53:00,
2013-03-15 18:58:00,36.0,22.7,29.77,WSW,247,3.0,21.0,58,0.00,,---,0.00,VWS V14.01,2013-03-15 22:58:00,
2013-03-15 19:03:00,35.8,22.9,29.78,NW,307,9.0,16.5,59,0.00,,---,0.00,VWS V14.01,2013-03-15 23:03:00,
2013-03-15 19:08:00,35.8,22.1,29.78,WNW,289,6.0,24.0,57,0.00,,---,0.00,VWS V14.01,2013-03-15 23:08:00,
2013-03-15 19:13:00,35.6,21.5,29.78,NW,305,9.0,22.5,56,0.00,,---,0.00,VWS V14.01,2013-03-15 23:13:00,
2013-03-15 19:18:00,35.4,21.7,29.78,WNW,297,7.5,22.5,57,0.00,,---,0.00,VWS V14.01,2013-03-15 23:18:00,
2013-03-15 19:23:00,35.2,21.5,29.78,West,272,1.5,18.0,57,0.00,,---,0.00,VWS V14.01,2013-03-15 23:23:00,
2013-03-15 19:28:00,35.1,21.4,29.78,WNW,283,6.0,24.0,57,0.00,,---,0.00,VWS V14.01,2013-03-15 23:28:00,
2013-03-15 19:33:00,35.0,21.7,29.80,WNW,298,4.5,13.5,58,0.00,,---,0.00,VWS V14.01,2013-03-15 23:33:00,
2013-03-15 19:38:00,34.7,21.5,29.80,West,270,6.0,13.5,58,0.00,,---,0.00,VWS V14.01,2013-03-15 23:38:00,
2013-03-15 19:43:00,34.6,21.4,29.80,West,273,4.5,16.5,58,0.00,,---,0.00,VWS V14.01,2013-03-15 23:43:00,
2013-03-15 19:48:00,34.4,21.2,29.80,WNW,286,3.0,19.5,58,0.00,,---,0.00,VWS V14.01,2013-03-15 23:48:00,
2013-03-15 19:53:00,34.1,22.1,29.80,West,274,9.0,9.0,61,0.00,,---,0.00,VWS V14.01,2013-03-15 23:53:00,
2013-03-15 19:58:00,33.8,21.4,29.80,West,274,3.0,10.5,60,0.00,,---,0.00,VWS V14.01,2013-03-15 23:58:00,
2013-03-15 20:03:00,33.8,21.8,29.81,West,279,9.0,16.5,61,0.00,,---,0.00,VWS V14.01,2013-03-16 00:03:00,
2013-03-15 20:08:00,33.9,21.5,29.81,NNW,346,1.5,27.0,60,0.00,,---,0.00,VWS V14.01,2013-03-16 00:08:00,
2013-03-15 20:13:00,33.8,22.2,29.81,NW,308,3.0,10.5,62,0.00,,---,0.00,VWS V14.01,2013-03-16 00:13:00,
2013-03-15 20:18:00,33.8,21.8,29.82,WNW,289,3.0,22.5,61,0.00,,---,0.00,VWS V14.01,2013-03-16 00:18:00,
2013-03-15 20:23:00,33.7,22.1,29.82,WNW,300,6.0,24.0,62,0.00,,---,0.00,VWS V14.01,2013-03-16 00:23:00,
2013-03-15 20:28:00,33.7,22.5,29.82,WNW,286,0.0,24.0,63,0.00,,---,0.00,VWS V14.01,2013-03-16 00:28:00,
2013-03-15 20:33:00,33.6,23.1,29.83,West,261,6.0,10.5,65,0.00,,---,0.00,VWS V14.01,2013-03-16 00:33:00,
2013-03-15 20:38:00,33.2,24.1,29.83,WNW,293,7.5,33.0,69,0.00,,---,0.00,VWS V14.01,2013-03-16 00:38:00,
2013-03-15 20:43:00,32.8,24.1,29.83,SW,227,1.5,16.5,70,0.00,,---,0.00,VWS V14.01,2013-03-16 00:43:00,
2013-03-15 20:48:00,32.5,24.2,29.84,West,281,1.5,16.5,71,0.00,,---,0.00,VWS V14.01,2013-03-16 00:48:00,
2013-03-15 20:53:00,32.3,23.6,29.84,NW,308,6.0,15.0,70,0.00,,---,0.00,VWS V14.01,2013-03-16 00:53:00,
2013-03-15 20:58:00,32.1,23.1,29.84,NW,310,10.5,24.0,69,0.00,,---,0.00,VWS V14.01,2013-03-16 00:58:00,
2013-03-15 21:03:00,32.1,22.8,29.84,East,84,6.0,21.0,68,0.00,,---,0.00,VWS V14.01,2013-03-16 01:03:00,
2013-03-15 21:08:00,32.0,23.0,29.84,WNW,296,4.5,21.0,69,0.00,,---,0.00,VWS V14.01,2013-03-16 01:08:00,
2013-03-15 21:13:00,31.8,23.1,29.84,WSW,256,1.5,12.0,70,0.00,,---,0.00,VWS V14.01,2013-03-16 01:13:00,
2013-03-15 21:18:00,31.6,23.0,29.85,NNE,24,12.0,16.5,70,0.00,,---,0.00,VWS V14.01,2013-03-16 01:18:00,
2013-03-15 21:23:00,31.6,23.3,29.85,North,1,1.5,16.5,71,0.00,,---,0.00,VWS V14.01,2013-03-16 01:23:00,
2013-03-15 21:28:00,31.5,23.2,29.85,WSW,251,4.5,16.5,71,0.00,,---,0.00,VWS V14.01,2013-03-16 01:28:00,
2013-03-15 21:33:00,31.5,23.2,29.86,WNW,293,6.0,9.0,71,0.00,,---,0.00,VWS V14.01,2013-03-16 01:33:00,
2013-03-15 21:38:00,31.5,23.5,29.86,SW,235,3.0,16.5,72,0.00,,---,0.00,VWS V14.01,2013-03-16 01:38:00,
2013-03-15 21:43:00,31.3,22.7,29.86,NW,306,4.5,15.0,70,0.00,,---,0.00,VWS V14.01,2013-03-16 01:43:00,
2013-03-15 21:49:00,31.3,22.7,29.86,WNW,300,16.5,18.0,70,0.00,,---,0.00,VWS V14.01,2013-03-16 01:49:00,
2013-03-15 21:54:00,31.2,22.9,29.86,WNW,291,7.5,13.5,71,0.00,,---,0.00,VWS V14.01,2013-03-16 01:54:00,
2013-03-15 21:59:00,31.0,22.7,29.86,WSW,251,4.5,15.0,71,0.00,,---,0.00,VWS V14.01,2013-03-16 01:59:00,
2013-03-15 22:04:00,30.9,21.6,29.88,West,261,4.5,16.5,68,0.00,,---,0.00,VWS V14.01,2013-03-16 02:04:00,
2013-03-15 22:09:00,30.8,21.5,29.88,WNW,289,6.0,16.5,68,0.00,,---,0.00,VWS V14.01,2013-03-16 02:09:00,
2013-03-15 22:14:00,30.7,21.4,29.88,SW,226,15.0,15.0,68,0.00,,---,0.00,VWS V14.01,2013-03-16 02:14:00,
2013-03-15 22:19:00,30.7,20.7,29.88,NW,313,9.0,19.5,66,0.00,,---,0.00,VWS V14.01,2013-03-16 02:19:00,
2013-03-15 22:24:00,30.6,20.6,29.88,East,93,6.0,24.0,66,0.00,,---,0.00,VWS V14.01,2013-03-16 02:24:00,
2013-03-15 22:29:00,30.5,20.5,29.88,NW,306,10.5,24.0,66,0.00,,---,0.00,VWS V14.01,2013-03-16 02:29:00,
2013-03-15 22:34:00,30.4,20.4,29.89,WSW,251,3.0,16.5,66,0.00,,---,0.00,VWS V14.01,2013-03-16 02:34:00,
2013-03-15 22:39:00,30.4,20.4,29.89,North,9,4.5,21.0,66,0.00,,---,0.00,VWS V14.01,2013-03-16 02:39:00,
2013-03-15 22:44:00,30.3,20.3,29.89,North,354,7.5,24.0,66,0.00,,---,0.00,VWS V14.01,2013-03-16 02:44:00,
2013-03-15 22:49:00,30.2,20.6,29.89,WNW,283,4.5,24.0,67,0.00,,---,0.00,VWS V14.01,2013-03-16 02:49:00,
2013-03-15 22:54:00,30.1,20.8,29.89,WNW,293,6.0,10.5,68,0.00,,---,0.00,VWS V14.01,2013-03-16 02:54:00,
2013-03-15 22:59:00,30.1,21.2,29.89,WSW,251,6.0,13.5,69,0.00,,---,0.00,VWS V14.01,2013-03-16 02:59:00,
2013-03-15 23:04:00,30.0,20.7,29.90,WNW,293,7.5,19.5,68,0.00,,---,0.00,VWS V14.01,2013-03-16 03:04:00,
2013-03-15 23:09:00,29.9,20.3,29.90,NW,305,4.5,19.5,67,0.00,,---,0.00,VWS V14.01,2013-03-16 03:09:00,
2013-03-15 23:14:00,29.8,20.5,29.90,WNW,293,3.0,9.0,68,0.03,,---,0.03,VWS V14.01,2013-03-16 03:14:00,
2013-03-15 23:19:00,29.8,20.5,29.91,SSW,210,3.0,15.0,68,0.03,,---,0.03,VWS V14.01,2013-03-16 03:19:00,
2013-03-15 23:24:00,29.7,20.5,29.91,NW,322,3.0,16.5,68,0.03,,---,0.03,VWS V14.01,2013-03-16 03:24:00,
2013-03-15 23:29:00,29.6,20.0,29.92,NW,309,6.0,16.5,67,0.03,,---,0.03,VWS V14.01,2013-03-16 03:29:00,
2013-03-15 23:34:00,29.5,19.6,29.92,NNW,337,7.5,18.0,66,0.03,,---,0.03,VWS V14.01,2013-03-16 03:34:00,
2013-03-15 23:39:00,29.4,19.5,29.92,North,9,3.0,18.0,66,0.03,,---,0.03,VWS V14.01,2013-03-16 03:39:00,
2013-03-15 23:44:00,29.3,19.4,29.92,WNW,302,6.0,22.5,66,0.03,,---,0.03,VWS V14.01,2013-03-16 03:44:00,
2013-03-15 23:49:00,29.1,19.2,29.92,West,267,6.0,22.5,66,0.03,,---,0.03,VWS V14.01,2013-03-16 03:49:00,
2013-03-15 23:54:00,29.1,19.9,29.92,NNE,14,4.5,13.5,68,0.03,,---,0.03,VWS V14.01,2013-03-16 03:54:00,
2013-03-15 23:59:00,29.0,19.4,29.92,WSW,257,3.0,13.5,67,0.03,,---,0.03,VWS V14.01,2013-03-16 03:59:00,